Time;durP1;ratioP1;P1;durP2;ratioP2;P2;SDS_P1;SDS_P2;PMS_P1;PMS_P2;Temp;Humidity;BMP_temperature;BMP_pressure;BME280_temperature;BME280_humidity;BME280_pressure;Samples;Min_cycle;Max_cycle;Signal;HPM_P1;HPM_P2
2021/12/04 00:02:17;;;;;;;15.17;7.87;;;;;;;0.45;83.78;99627.56;5071661;57;1134984;-83
2021/12/04 00:07:23;;;;;;;22.87;6.77;;;;;;;0.47;83.92;99620.95;5071548;58;1134744;-83
2021/12/04 00:12:34;;;;;;;15.63;6.37;;;;;;;0.50;83.94;99611.23;5071627;58;1134793;-84
2021/12/04 00:17:39;;;;;;;15.53;8.80;;;;;;;0.53;83.90;99602.44;5186020;56;1134777;-84
2021/12/04 00:22:45;;;;;;;16.63;7.63;;;;;;;0.55;83.81;99601.91;5235140;56;1134837;-84
2021/12/04 00:27:51;;;;;;;15.20;6.28;;;;;;;0.60;83.76;99584.31;5234988;56;1135041;-84
2021/12/04 00:33:02;;;;;;;11.03;6.43;;;;;;;0.62;83.40;99576.78;5234504;56;1135003;-84
2021/12/04 00:49:06;;;;;;;12.60;6.30;;;;;;;0.66;82.83;99557.50;5154626;56;1132781;-84
2021/12/04 00:53:54;;;;;;;8.30;3.72;;;;;;;0.71;82.85;99555.97;5207856;56;1132748;-84
2021/12/04 00:59:00;;;;;;;7.70;4.45;;;;;;;0.76;82.07;99554.43;5207267;56;1132754;-84
2021/12/04 01:04:07;;;;;;;5.70;2.93;;;;;;;0.82;82.01;99557.53;5207480;56;1132836;-84
2021/12/04 01:09:16;;;;;;;5.97;2.87;;;;;;;0.86;81.43;99561.66;5206305;56;1132667;-84
2021/12/04 01:14:31;;;;;;;7.17;4.10;;;;;;;0.90;81.62;99560.58;5207144;56;1132739;-84
2021/12/04 01:19:33;;;;;;;7.40;3.53;;;;;;;0.93;81.20;99551.28;5206586;56;1132701;-84
2021/12/04 01:24:39;;;;;;;11.43;4.57;;;;;;;0.96;81.15;99554.19;5160884;56;1132716;-84
2021/12/04 01:29:44;;;;;;;6.17;3.57;;;;;;;1.00;81.82;99560.92;5121683;57;1134839;-84
2021/12/04 01:34:50;;;;;;;8.35;4.45;;;;;;;0.97;84.11;99558.47;5121218;57;1132907;-84
2021/12/04 01:39:56;;;;;;;7.87;5.03;;;;;;;0.88;86.04;99557.22;5042128;57;1132818;-84
2021/12/04 01:45:02;;;;;;;9.70;5.40;;;;;;;0.78;88.34;99561.20;5049132;56;1132701;-84
2021/12/04 01:50:09;;;;;;;8.53;4.00;;;;;;;0.66;90.16;99556.66;5060476;58;1132724;-84
2021/12/04 01:55:15;;;;;;;8.60;5.27;;;;;;;0.55;93.24;99552.48;5117111;57;1132952;-84
2021/12/04 02:00:21;;;;;;;8.53;4.23;;;;;;;0.45;94.14;99547.38;5147931;57;1132683;-84
2021/12/04 02:05:26;;;;;;;8.97;4.20;;;;;;;0.37;95.23;99543.86;5134764;57;1130609;-84
2021/12/04 02:10:33;;;;;;;13.27;5.63;;;;;;;0.30;97.08;99540.75;5187529;56;1130659;-84
2021/12/04 02:15:38;;;;;;;7.70;5.07;;;;;;;0.26;96.61;99535.32;5196776;56;1133187;-84
2021/12/04 02:20:44;;;;;;;10.20;4.77;;;;;;;0.24;96.99;99521.55;5096144;57;1130624;-84
2021/12/04 02:25:50;;;;;;;12.18;6.30;;;;;;;0.23;98.25;99523.77;5072922;57;1132712;-84
2021/12/04 02:30:56;;;;;;;6.23;4.10;;;;;;;0.19;97.59;99524.84;5113192;57;1132926;-84
2021/12/04 02:36:02;;;;;;;3.87;3.13;;;;;;;0.19;98.58;99520.09;5125825;57;1130704;-85
2021/12/04 02:41:09;;;;;;;12.03;6.57;;;;;;;0.19;98.29;99512.30;5143403;57;1130587;-84
2021/12/04 02:46:18;;;;;;;7.23;4.93;;;;;;;0.23;97.33;99506.87;5175630;56;1132817;-84
2021/12/04 02:51:23;;;;;;;11.20;4.30;;;;;;;0.24;97.93;99502.51;5183301;56;1130883;-82
2021/12/04 02:56:29;;;;;;;9.87;5.70;;;;;;;0.25;97.78;99504.20;5182945;57;1132739;-82
2021/12/04 03:01:39;;;;;;;11.20;5.60;;;;;;;0.29;97.27;99494.86;5182901;57;1130895;-82
2021/12/04 03:06:47;;;;;;;6.23;4.57;;;;;;;0.32;96.99;99479.08;5183235;57;1132725;-81
2021/12/04 03:11:52;;;;;;;8.83;5.22;;;;;;;0.33;97.00;99485.95;5182963;57;1130857;-82
2021/12/04 03:16:58;;;;;;;12.63;5.93;;;;;;;0.32;97.08;99469.13;5219201;56;1130522;-82
2021/12/04 03:22:04;;;;;;;6.87;4.70;;;;;;;0.31;96.95;99461.79;5220232;56;1132724;-82
2021/12/04 03:27:11;;;;;;;10.33;4.23;;;;;;;0.32;97.00;99460.87;5207310;56;1130629;-82
2021/12/04 03:42:46;;;;;;;15.33;7.00;;;;;;;0.35;96.38;99451.61;5221744;56;1130651;-85
2021/12/04 03:47:56;;;;;;;63.47;25.70;;;;;;;0.37;96.55;99442.89;5200910;55;1134969;-83
2021/12/04 03:52:59;;;;;;;19.42;11.03;;;;;;;0.39;96.47;99438.45;5190285;55;1136922;-84
2021/12/04 03:58:05;;;;;;;13.47;8.07;;;;;;;0.38;96.85;99433.71;5207720;55;1136838;-85
2021/12/04 04:03:11;;;;;;;12.03;8.63;;;;;;;0.36;96.94;99427.75;5201227;55;1134785;-84
2021/12/04 04:08:17;;;;;;;14.37;9.77;;;;;;;0.33;97.97;99433.11;5198492;55;1134818;-85
2021/12/04 04:13:23;;;;;;;10.83;7.10;;;;;;;0.34;97.90;99435.63;5184984;56;1134783;-84
2021/12/04 04:18:31;;;;;;;14.30;6.77;;;;;;;0.32;97.95;99434.87;5128333;56;1134820;-85
2021/12/04 04:23:37;;;;;;;13.40;7.13;;;;;;;0.31;98.58;99433.19;5177473;56;1134856;-84
2021/12/04 04:28:44;;;;;;;19.10;7.93;;;;;;;0.30;99.17;99426.80;5194415;56;1134941;-84
2021/12/04 04:33:56;;;;;;;11.60;5.50;;;;;;;0.27;99.69;99434.75;5191363;56;1134723;-82
2021/12/04 05:00:52;;;;;;;8.85;5.65;;;;;;;0.24;100.00;99405.00;5209732;56;1136900;-83
2021/12/04 05:11:20;;;;;;;14.40;7.93;;;;;;;0.28;100.00;99411.73;5148415;57;1134832;-83
2021/12/04 05:16:30;;;;;;;13.37;6.80;;;;;;;0.27;100.00;99403.09;5148662;57;1134842;-81
2021/12/04 05:21:31;;;;;;;12.00;7.50;;;;;;;0.27;100.00;99396.59;5148176;57;1134745;-82
2021/12/04 05:26:37;;;;;;;12.60;5.80;;;;;;;0.27;100.00;99396.59;5148486;57;1134864;-83
2021/12/04 05:31:43;;;;;;;10.03;7.10;;;;;;;0.27;100.00;99397.05;5147501;57;1134805;-81
2021/12/04 05:36:48;;;;;;;17.13;9.47;;;;;;;0.27;100.00;99404.39;5146812;57;1134855;-82
2021/12/04 05:41:55;;;;;;;12.07;7.67;;;;;;;0.29;100.00;99403.84;5146998;57;1134805;-82
2021/12/04 05:47:06;;;;;;;14.47;8.87;;;;;;;0.30;100.00;99401.63;5147307;57;1134971;-83
2021/12/04 05:53:04;;;;;;;13.87;8.27;;;;;;;0.32;100.00;99399.77;5147003;57;1135019;-82
2021/12/04 05:57:15;;;;;;;14.87;8.53;;;;;;;0.33;100.00;99401.44;5134841;57;1134826;-83
2021/12/04 06:02:21;;;;;;;13.75;8.00;;;;;;;0.35;100.00;99398.30;5146490;57;1134879;-82
2021/12/04 06:07:26;;;;;;;13.90;9.63;;;;;;;0.37;100.00;99400.82;5146956;57;1134954;-82
2021/12/04 06:12:33;;;;;;;15.30;10.37;;;;;;;0.39;100.00;99404.64;5147029;57;1134816;-82
2021/12/04 06:17:39;;;;;;;17.10;9.43;;;;;;;0.37;100.00;99402.58;5089500;57;1136896;-82
2021/12/04 06:22:45;;;;;;;15.97;8.70;;;;;;;0.36;100.00;99406.95;5036753;57;1132673;-82
2021/12/04 06:27:52;;;;;;;18.10;11.93;;;;;;;0.39;100.00;99417.65;5139850;57;1133037;-82
2021/12/04 06:32:57;;;;;;;19.43;11.70;;;;;;;0.34;100.00;99399.22;5139946;57;21170;-84
2021/12/04 06:38:04;;;;;;;13.27;7.80;;;;;;;0.39;100.00;99405.95;5097803;57;1134708;-83
2021/12/04 06:43:10;;;;;;;18.97;11.37;;;;;;;0.39;100.00;99409.38;5021723;58;1137001;-83
2021/12/04 06:48:24;;;;;;;15.77;8.47;;;;;;;0.37;100.00;99411.23;5061212;57;1139209;-82
2021/12/04 06:58:29;;;;;;;19.30;11.20;;;;;;;0.39;100.00;99415.05;5045006;58;1139271;-83
2021/12/04 07:03:35;;;;;;;26.10;15.33;;;;;;;0.40;100.00;99419.33;5055951;57;1139022;-82
2021/12/04 07:08:41;;;;;;;15.67;11.57;;;;;;;0.43;100.00;99415.27;5055072;57;1138935;-82
2021/12/04 07:13:47;;;;;;;19.30;10.70;;;;;;;0.42;100.00;99413.13;5030454;58;1139015;-82
2021/12/04 07:18:53;;;;;;;25.13;14.07;;;;;;;0.45;100.00;99406.47;5011277;58;1138947;-82
2021/12/04 07:23:58;;;;;;;19.20;11.07;;;;;;;0.44;100.00;99404.79;5010050;58;1139120;-82
2021/12/04 07:29:07;;;;;;;14.10;8.87;;;;;;;0.45;100.00;99418.17;5013162;57;1138948;-80
2021/12/04 07:34:13;;;;;;;15.13;9.67;;;;;;;0.44;100.00;99406.55;5035573;58;1136935;-82
2021/12/04 07:39:19;;;;;;;40.30;18.17;;;;;;;0.46;100.00;99408.12;5013597;58;1137154;-83
2021/12/04 07:44:24;;;;;;;32.63;17.37;;;;;;;0.50;100.00;99408.80;5014551;57;1139036;-84
2021/12/04 07:49:30;;;;;;;19.00;11.33;;;;;;;0.52;100.00;99406.95;5095759;56;1138899;-82
2021/12/04 07:54:36;;;;;;;30.97;16.40;;;;;;;0.52;100.00;99403.89;4968951;58;1138956;-82
2021/12/04 07:59:42;;;;;;;42.60;22.63;;;;;;;0.53;100.00;99407.34;5004336;58;1138953;-82
2021/12/04 08:04:47;;;;;;;17.07;10.40;;;;;;;0.51;100.00;99413.92;5064173;57;1139007;-84
2021/12/04 08:09:53;;;;;;;16.80;10.47;;;;;;;0.55;100.00;99422.41;5100239;57;1139122;-83
2021/12/04 08:14:59;;;;;;;12.30;7.87;;;;;;;0.55;100.00;99421.95;5077966;56;1139222;-82
2021/12/04 08:20:05;;;;;;;19.73;12.53;;;;;;;0.56;100.00;99428.83;5146578;56;1136924;-83
2021/12/04 08:25:14;;;;;;;20.27;9.80;;;;;;;0.58;100.00;99432.66;5161815;56;1139011;-82
2021/12/04 08:30:25;;;;;;;28.00;12.63;;;;;;;0.55;100.00;99440.16;5183504;56;1137333;-83
2021/12/04 08:35:35;;;;;;;12.43;8.10;;;;;;;0.58;100.00;99435.25;5103779;57;1139197;-82
2021/12/04 08:40:41;;;;;;;24.43;10.80;;;;;;;0.57;100.00;99425.77;5067625;57;1136876;-83
2021/12/04 08:45:47;;;;;;;23.67;11.60;;;;;;;0.55;100.00;99430.21;5067657;57;1138972;-82
2021/12/04 08:50:53;;;;;;;20.37;10.30;;;;;;;0.57;100.00;99431.81;4985757;58;1139136;-85
2021/12/04 08:55:59;;;;;;;32.77;16.23;;;;;;;0.57;100.00;99433.58;5126168;57;1139020;-84
2021/12/04 09:01:11;;;;;;;39.03;21.40;;;;;;;0.56;100.00;99433.19;5130208;57;1138964;-81
2021/12/04 09:06:19;;;;;;;33.77;17.83;;;;;;;0.59;100.00;99435.17;5073500;57;1138960;-84
2021/12/04 09:11:32;;;;;;;48.40;17.63;;;;;;;0.65;100.00;99443.09;5115493;57;1139073;-85
2021/12/04 09:16:39;;;;;;;27.37;14.30;;;;;;;0.64;100.00;99446.16;5126567;56;1139019;-84
2021/12/04 09:21:45;;;;;;;199.50;54.77;;;;;;;0.67;100.00;99445.15;5011396;58;1139002;-84
2021/12/04 10:04:46;;;;;;;75.35;26.45;;;;;;;0.88;100.00;99441.84;5171832;56;1138915;-89
2021/12/04 10:36:39;;;;;;;165.60;71.83;;;;;;;0.92;100.00;99431.16;5105329;57;1141008;-84
2021/12/04 10:41:47;;;;;;;44.63;23.50;;;;;;;0.97;100.00;99427.01;5121422;57;1140995;-82
2021/12/04 10:47:11;;;;;;;26.57;14.50;;;;;;;0.95;100.00;99422.34;5123751;57;1138951;-88
2021/12/04 11:03:36;;;;;;;41.30;17.63;;;;;;;1.02;100.00;99419.79;5118147;57;1137083;-86
2021/12/04 11:19:28;;;;;;;28.75;13.32;;;;;;;1.08;100.00;99401.66;5131206;57;1138925;-82
2021/12/04 11:24:55;;;;;;;17.00;8.00;;;;;;;1.09;100.00;99404.19;5093255;57;1139158;-83
2021/12/04 11:35:40;;;;;;;56.30;24.25;;;;;;;1.10;100.00;99396.75;5149755;57;1136920;-82
2021/12/04 11:40:50;;;;;;;14.60;9.57;;;;;;;1.14;100.00;99397.42;5123016;57;1138834;-82
2021/12/04 11:46:00;;;;;;;39.13;15.67;;;;;;;1.14;100.00;99400.86;5084313;56;1136963;-80
2021/12/04 11:50:55;;;;;;;22.37;11.37;;;;;;;1.14;100.00;99397.42;5122723;56;1139176;-80
2021/12/04 11:56:03;;;;;;;63.00;25.40;;;;;;;1.17;100.00;99398.55;5153846;56;1139042;-81
2021/12/04 12:01:32;;;;;;;30.20;14.77;;;;;;;1.15;100.00;99394.73;5190418;56;1139040;-85
2021/12/04 12:06:45;;;;;;;21.07;10.17;;;;;;;1.21;100.00;99396.16;5144433;57;1139229;-81
2021/12/04 12:12:02;;;;;;;27.33;13.03;;;;;;;1.16;100.00;99389.06;5218014;56;1139002;-81
2021/12/04 12:17:10;;;;;;;26.47;13.40;;;;;;;1.17;100.00;99380.33;5220689;56;1138993;-82
2021/12/04 12:27:57;;;;;;;18.57;10.60;;;;;;;1.17;100.00;99369.91;5201516;56;1134857;-81
2021/12/04 12:39:11;;;;;;;23.70;12.83;;;;;;;1.17;100.00;99349.08;5066479;56;1136927;-77
2021/12/04 12:44:30;;;;;;;34.33;15.93;;;;;;;1.19;100.00;99345.92;5157252;57;1139164;-78
2021/12/04 12:49:42;;;;;;;94.00;30.60;;;;;;;1.26;100.00;99353.74;5163563;57;1138949;-81
2021/12/04 12:54:58;;;;;;;118.23;38.53;;;;;;;1.23;100.00;99356.05;5129329;57;1138953;-78
2021/12/04 13:16:33;;;;;;;73.53;28.10;;;;;;;1.31;100.00;99346.52;5119549;56;1138938;-83
2021/12/04 13:21:46;;;;;;;73.07;28.33;;;;;;;1.39;100.00;99343.81;5163703;56;1138821;-78
2021/12/04 13:26:55;;;;;;;57.63;27.57;;;;;;;1.46;100.00;99332.58;5152638;57;1138975;-82
2021/12/04 13:32:03;;;;;;;77.93;30.43;;;;;;;1.48;100.00;99337.24;5152034;57;1139102;-79
2021/12/04 13:37:09;;;;;;;40.87;19.47;;;;;;;1.51;100.00;99340.98;5152043;57;1138967;-76
2021/12/04 13:42:15;;;;;;;33.30;15.17;;;;;;;1.46;100.00;99333.89;5092985;57;1138947;-85
2021/12/04 13:47:22;;;;;;;33.50;15.90;;;;;;;1.46;100.00;99335.66;5068321;57;1138971;-79
2021/12/04 13:52:32;;;;;;;84.90;34.93;;;;;;;1.45;100.00;99328.30;5068610;57;1139251;-78
2021/12/04 13:57:41;;;;;;;79.70;38.90;;;;;;;1.47;100.00;99320.40;5069553;57;1139209;-85
2021/12/04 14:02:47;;;;;;;50.30;32.30;;;;;;;1.56;100.00;99316.77;5069164;57;1139056;-78
2021/12/04 14:08:02;;;;;;;52.27;23.03;;;;;;;1.60;100.00;99313.05;5068494;57;1136904;-83
2021/12/04 14:13:09;;;;;;;33.10;17.67;;;;;;;1.62;100.00;99316.41;5076927;57;1137494;-82
2021/12/04 14:18:18;;;;;;;29.50;16.30;;;;;;;1.63;100.00;99316.78;5071668;57;1136854;-81
2021/12/04 14:23:29;;;;;;;39.77;25.33;;;;;;;1.66;100.00;99317.08;5183112;56;1136903;-81
2021/12/04 14:28:39;;;;;;;48.67;25.67;;;;;;;1.69;100.00;99328.59;5227922;56;1137300;-79
2021/12/04 14:33:47;;;;;;;36.93;20.07;;;;;;;1.67;100.00;99352.16;5241977;56;1136912;-83
2021/12/04 14:38:53;;;;;;;36.87;20.90;;;;;;;1.67;100.00;99352.16;5174539;56;1136965;-78
2021/12/04 14:43:59;;;;;;;27.87;14.83;;;;;;;1.64;100.00;99354.95;5172291;56;1137011;-80
2021/12/04 14:49:09;;;;;;;27.13;14.03;;;;;;;1.56;100.00;99362.37;5178595;56;1136849;-85
2021/12/04 14:54:12;;;;;;;32.17;18.03;;;;;;;1.46;100.00;99352.13;5165836;56;1136956;-82
2021/12/04 14:59:19;;;;;;;53.57;22.47;;;;;;;1.47;100.00;99356.41;5164904;56;1136835;-79
2021/12/04 15:04:24;;;;;;;27.53;13.87;;;;;;;1.48;100.00;99349.43;5160609;56;1136856;-80
2021/12/04 15:09:30;;;;;;;28.87;16.97;;;;;;;1.45;100.00;99350.91;5165884;56;1136912;-81
2021/12/04 15:14:36;;;;;;;24.03;13.77;;;;;;;1.41;100.00;99342.42;5174117;56;1134800;-78
2021/12/04 15:19:44;;;;;;;62.97;39.73;;;;;;;1.42;100.00;99361.04;5182764;56;1134914;-79
2021/12/04 15:24:49;;;;;;;37.67;22.40;;;;;;;1.37;100.00;99378.72;5173801;56;1138907;-78
2021/12/04 15:29:57;;;;;;;336.50;74.90;;;;;;;1.38;100.00;99377.77;5150128;57;1139031;-79
2021/12/04 15:35:16;;;;;;;79.13;36.50;;;;;;;1.40;100.00;99379.83;5131240;57;1141272;-82
2021/12/04 15:40:36;;;;;;;84.13;36.73;;;;;;;1.43;100.00;99376.20;5108090;57;1139127;-76
2021/12/04 15:45:49;;;;;;;59.33;26.27;;;;;;;1.50;100.00;99382.28;5127453;57;1139193;-80
2021/12/04 15:56:12;;;;;;;75.20;30.55;;;;;;;1.59;100.00;99373.92;5130561;57;1140880;-74
2021/12/04 16:01:17;;;;;;;50.87;20.70;;;;;;;1.60;100.00;99378.66;5128485;57;1139174;-78
2021/12/04 16:06:23;;;;;;;56.53;22.00;;;;;;;1.55;100.00;99374.18;5119689;57;1138960;-77
2021/12/04 16:11:38;;;;;;;32.73;16.20;;;;;;;1.56;100.00;99371.95;5151641;57;1139025;-79
2021/12/04 16:16:44;;;;;;;29.80;16.55;;;;;;;1.53;100.00;99364.34;5108537;57;1139159;-81
2021/12/04 16:21:50;;;;;;;29.30;15.63;;;;;;;1.47;100.00;99355.56;5068193;57;1139337;-81
2021/12/04 16:27:10;;;;;;;42.90;22.40;;;;;;;1.43;100.00;99346.25;5070127;57;1139216;-79
2021/12/04 16:32:33;;;;;;;61.10;26.25;;;;;;;1.40;100.00;99333.77;5109679;57;1139290;-79
2021/12/04 16:37:37;;;;;;;60.60;26.70;;;;;;;1.38;100.00;99340.84;5107070;57;1139143;-81
2021/12/04 16:42:28;;;;;;;36.93;18.40;;;;;;;1.38;100.00;99342.14;5098677;57;1138928;-85
2021/12/04 16:47:42;;;;;;;44.50;22.83;;;;;;;1.41;100.00;99341.97;5104062;57;1138890;-79
2021/12/04 16:58:13;;;;;;;75.60;33.10;;;;;;;1.31;100.00;99354.33;5057855;57;1138941;-82
2021/12/04 17:03:16;;;;;;;60.55;25.17;;;;;;;1.34;100.00;99361.50;5057532;57;1139366;-82
2021/12/04 17:22:13;;;;;;;48.00;22.00;;;;;;;1.33;100.00;99384.57;5325505;55;46142;-79
2021/12/04 17:27:19;;;;;;;47.43;22.40;;;;;;;1.27;100.00;99384.91;5115942;57;1134896;-80
2021/12/04 17:32:25;;;;;;;155.27;60.97;;;;;;;1.26;100.00;99386.30;5040308;58;1139123;-83
2021/12/04 17:37:31;;;;;;;66.93;28.93;;;;;;;1.22;100.00;99380.42;5042526;56;1141034;-83
2021/12/04 17:42:39;;;;;;;82.00;36.80;;;;;;;1.20;100.00;99383.60;5096644;57;1139307;-81
2021/12/04 17:47:51;;;;;;;63.00;28.30;;;;;;;1.21;100.00;99385.75;5070524;57;1138986;-80
2021/12/04 17:52:56;;;;;;;68.00;28.57;;;;;;;1.24;100.00;99379.03;5007594;58;1139003;-82
2021/12/04 17:58:02;;;;;;;53.40;25.08;;;;;;;1.22;100.00;99361.38;5098645;58;1139066;-82
2021/12/04 18:03:09;;;;;;;106.73;34.23;;;;;;;1.19;100.00;99370.67;5081670;57;1138981;-80
2021/12/04 18:08:15;;;;;;;42.80;19.73;;;;;;;1.19;100.00;99369.37;5109597;58;1141359;-80
2021/12/04 18:13:26;;;;;;;104.23;36.13;;;;;;;1.19;100.00;99374.57;5111535;58;1138995;-82
2021/12/04 18:18:34;;;;;;;52.17;21.93;;;;;;;1.18;100.00;99367.22;5110156;57;1141150;-77
2021/12/04 18:23:40;;;;;;;230.50;63.57;;;;;;;1.18;100.00;99350.76;5086759;57;1138977;-80
2021/12/04 18:28:46;;;;;;;489.23;122.10;;;;;;;1.16;100.00;99336.52;5033915;58;1141207;-77
2021/12/04 18:33:52;;;;;;;604.20;161.53;;;;;;;1.20;100.00;99334.59;5068950;57;1143331;-82
2021/12/04 18:38:58;;;;;;;302.00;85.23;;;;;;;1.22;100.00;99340.55;5127163;56;1143142;-83
2021/12/04 18:44:06;;;;;;;683.73;257.97;;;;;;;1.16;100.00;99330.47;5116279;56;1141127;-83
2021/12/04 18:49:13;;;;;;;479.77;176.70;;;;;;;1.09;100.00;99336.48;5131356;57;1143229;-84
2021/12/04 18:54:20;;;;;;;561.33;214.47;;;;;;;1.06;100.00;99323.67;5109765;57;1143248;-78
2021/12/04 18:59:26;;;;;;;401.73;153.23;;;;;;;1.06;100.00;99330.18;5122653;56;1143378;-81
2021/12/04 19:04:33;;;;;;;293.83;115.47;;;;;;;1.05;100.00;99327.20;5109258;57;1143226;-84
2021/12/04 19:09:39;;;;;;;265.93;119.37;;;;;;;1.00;100.00;99320.95;5133867;57;1143317;-80
2021/12/04 19:14:45;;;;;;;116.00;51.87;;;;;;;0.96;100.00;99323.34;5134051;57;1143273;-81
2021/12/04 19:19:50;;;;;;;63.37;30.03;;;;;;;0.88;99.94;99324.26;5147210;56;1141059;-84
2021/12/04 19:24:56;;;;;;;66.00;30.53;;;;;;;0.82;100.00;99336.31;5182136;57;1136896;-84
2021/12/04 19:30:05;;;;;;;82.60;36.23;;;;;;;0.80;100.00;99347.72;5173565;57;1139107;-80
2021/12/04 19:35:24;;;;;;;87.37;34.17;;;;;;;0.80;100.00;99351.63;5105558;56;1139020;-82
2021/12/04 19:51:09;;;;;;;83.50;32.28;;;;;;;0.76;100.00;99361.39;5140654;57;1139111;-87
2021/12/04 19:56:45;;;;;;;61.80;25.20;;;;;;;0.75;100.00;99355.81;5164544;56;1136919;-84
2021/12/04 20:01:57;;;;;;;68.07;27.03;;;;;;;0.73;100.00;99355.05;5182239;56;1136922;-82
2021/12/04 20:07:03;;;;;;;55.07;23.53;;;;;;;0.72;100.00;99347.33;5202777;56;1136961;-82
2021/12/04 20:17:27;;;;;;;59.87;20.97;;;;;;;0.66;100.00;99344.59;5184372;56;1138933;-85
2021/12/04 20:22:33;;;;;;;77.07;27.47;;;;;;;0.65;100.00;99333.34;5188072;56;1139182;-82
2021/12/04 20:27:44;;;;;;;77.70;31.48;;;;;;;0.66;100.00;99328.98;5234812;56;1139094;-85
2021/12/04 20:32:55;;;;;;;65.62;28.85;;;;;;;0.62;100.00;99324.88;5205814;55;1138867;-85
2021/12/04 21:53:09;;;;;;;81.53;32.28;;;;;;;0.27;100.00;99311.23;5257814;55;1139268;-82
2021/12/04 22:09:12;;;;;;;64.20;26.37;;;;;;;0.18;100.00;99292.22;5138572;56;1139027;-83
2021/12/04 22:14:27;;;;;;;57.43;24.63;;;;;;;0.14;100.00;99285.08;5157907;56;1139070;-84
2021/12/04 22:19:55;;;;;;;66.67;29.15;;;;;;;0.14;100.00;99282.94;5257398;55;1138842;-86
2021/12/04 22:25:18;;;;;;;57.85;25.10;;;;;;;0.12;100.00;99277.82;5118278;57;1139349;-86
2021/12/04 23:02:26;;;;;;;59.43;26.53;;;;;;;0.07;100.00;99299.31;5211670;56;1136885;-84
2021/12/04 23:12:59;;;;;;;59.67;25.80;;;;;;;0.02;100.00;99298.72;5242895;55;1138932;-85
2021/12/04 23:18:22;;;;;;;58.90;26.70;;;;;;;0.07;100.00;99313.61;5268734;55;1138987;-84
2021/12/04 23:34:19;;;;;;;46.53;25.13;;;;;;;0.11;100.00;99336.39;5300132;55;1139314;-85
2021/12/04 23:55:24;;;;;;;56.53;26.00;;;;;;;-0.02;100.00;99308.46;5300633;55;1138663;-86
